Portada
METAR-TAF:

METAR-TAF

Aeroports :

Àstrakhan, Rússia

latitud: 46-17N, longitud: 048-00-23E, altitud: 0 m

Observació

L'informe es va fer fa 36 minuts, a les 23:00 UTC
Vent 6 kt del Sud-Est
Temperatura 0°C
Humitat 86%
Pressió 1018 hPa
Visibilitat 10 km o més
sense núvols per sota de 1500 mi sense presència de cumulonimbus.

METAR: URWA 262300Z 14003MPS CAVOK 00/M02 Q1018 R09/010070 NOSIG RMK QFE765/1020

Hora: 03:36 (23:36 UTC)

Pronòstic

L'informe es va fer fa 36 minuts, a les 23:00 UTC
Pronòstic vàlid del 27 a les 00 UTC al 27 a les 09 UTC
Vent 6 kt del Sud-Est amb ràfegues de 16 kt
Visibilitat 10 km o més
Núvols disperses a una alçada de 2000 ft
Evolucionant progressivament
l' 26 a les 04 UTC al 26 a les 05 UTC
Vent 14 kt del Sud amb ràfegues de 27 kt

TAF: URWA 262300Z 2700/2709 14003G08MPS 9999 SCT020 BECMG 2604/2605 17007G14MPS

Observacions i pronòstics meteorològics de més de 4000 aeroports (METAR i TAF).

Les estacions disponibles són els punts grocs i vermells al mapa.

Posi el ratolí al punt desitjat per veure el nom de l'estació.

Feu clic per veure les observacions i els pronòstics meteorològics.

Per canviar el mapa: feu clic els botons verds amb una creu de color negre per apropar; al botó verd amb un guió per allunyar la imatge; o en les fletxes verdes per a mapes adjacents.


METAR-TAF: